createdAt,value
2023-05-20T00:01:55.719Z,71.00
2023-05-20T00:04:23.041Z,70.92
2023-05-20T00:06:50.432Z,70.81
2023-05-20T00:09:17.680Z,71.05
2023-05-20T00:11:46.383Z,70.95
2023-05-20T00:14:14.758Z,71.03
2023-05-20T00:16:42.028Z,71.14
2023-05-20T00:19:09.516Z,71.16
2023-05-20T00:21:36.826Z,71.10
2023-05-20T00:24:04.213Z,71.14
2023-05-20T00:26:31.512Z,71.04
2023-05-20T00:28:59.406Z,71.11
2023-05-20T00:31:26.737Z,71.19
2023-05-20T00:33:54.151Z,71.06
2023-05-20T00:36:21.479Z,71.07
2023-05-20T00:38:48.837Z,70.94
2023-05-20T00:41:16.097Z,70.92
2023-05-20T00:43:43.350Z,70.75
2023-05-20T00:46:10.893Z,70.69
2023-05-20T00:48:41.840Z,70.68
2023-05-20T00:51:10.441Z,70.61
2023-05-20T00:53:37.697Z,70.56
2023-05-20T00:56:05.615Z,70.53
2023-05-20T00:58:33.126Z,70.60
2023-05-20T01:01:00.422Z,70.61
2023-05-20T01:03:28.510Z,70.62
2023-05-20T01:05:56.011Z,70.61
2023-05-20T01:08:23.882Z,70.55
2023-05-20T01:11:22.778Z,70.59
2023-05-20T01:13:54.948Z,70.73
2023-05-20T01:16:23.773Z,70.82
2023-05-20T01:18:51.754Z,71.07
2023-05-20T01:21:18.970Z,71.34
2023-05-20T01:23:46.218Z,71.42
2023-05-20T01:26:17.518Z,71.57
2023-05-20T01:28:46.267Z,71.71
2023-05-20T01:31:24.189Z,71.78
2023-05-20T01:33:52.676Z,71.86
2023-05-20T01:36:20.105Z,71.98
2023-05-20T01:38:47.363Z,72.01
2023-05-20T01:41:14.629Z,72.13
2023-05-20T01:43:41.981Z,72.32
2023-05-20T01:46:09.264Z,72.44
2023-05-20T01:48:36.897Z,72.38
2023-05-20T01:51:04.150Z,72.21
2023-05-20T01:53:31.415Z,72.13
2023-05-20T01:55:59.382Z,72.07
2023-05-20T01:58:26.933Z,72.06
2023-05-20T02:00:54.211Z,72.10
2023-05-20T02:03:21.477Z,72.24
2023-05-20T02:05:48.920Z,72.32
2023-05-20T02:08:16.268Z,72.39
2023-05-20T02:10:44.646Z,72.42
2023-05-20T02:13:12.927Z,72.56
2023-05-20T02:15:44.072Z,72.68
2023-05-20T02:18:12.927Z,72.67
2023-05-20T02:20:41.379Z,72.55
2023-05-20T02:23:09.120Z,72.64
2023-05-20T02:25:37.299Z,72.64
2023-05-20T02:28:06.338Z,72.81
2023-05-20T02:30:34.577Z,72.95
2023-05-20T02:33:02.690Z,73.10
2023-05-20T02:35:30.005Z,73.17
2023-05-20T02:37:57.465Z,73.11
2023-05-20T02:40:24.720Z,73.02
2023-05-20T02:42:52.074Z,72.98
2023-05-20T02:45:19.332Z,72.96
2023-05-20T02:47:46.641Z,72.94
2023-05-20T02:50:13.953Z,72.90
2023-05-20T02:52:42.917Z,72.70
2023-05-20T02:55:10.913Z,72.86
2023-05-20T02:57:38.645Z,72.80
2023-05-20T03:00:11.296Z,72.69
2023-05-20T03:02:38.637Z,72.62
2023-05-20T03:05:08.245Z,72.47
2023-05-20T03:07:36.989Z,72.23
2023-05-20T03:10:08.163Z,72.14
2023-05-20T03:12:35.413Z,72.20
2023-05-20T03:15:02.688Z,71.93
2023-05-20T03:17:29.944Z,71.82
2023-05-20T03:19:57.595Z,71.69
2023-05-20T03:22:25.252Z,71.37
2023-05-20T03:24:53.331Z,71.34
2023-05-20T03:27:21.658Z,71.13
2023-05-20T03:29:49.271Z,70.84
2023-05-20T03:32:17.438Z,70.36
2023-05-20T03:34:45.218Z,70.22
2023-05-20T03:37:12.477Z,70.00
2023-05-20T03:39:39.828Z,69.99
2023-05-20T03:42:08.210Z,69.94
2023-05-20T03:46:43.176Z,69.32
2023-05-20T03:49:10.722Z,68.79
2023-05-20T03:51:39.202Z,68.72
2023-05-20T03:54:09.954Z,68.45
2023-05-20T03:56:37.508Z,68.38
2023-05-20T03:59:05.068Z,68.55
2023-05-20T04:01:34.311Z,68.34
2023-05-20T04:04:01.771Z,67.62
2023-05-20T04:06:29.390Z,67.47
2023-05-20T04:08:57.565Z,67.32
2023-05-20T04:11:24.922Z,67.55
2023-05-20T04:13:52.178Z,67.01
2023-05-20T04:16:20.364Z,66.64
2023-05-20T04:18:48.759Z,65.94
2023-05-20T04:21:16.207Z,65.84
2023-05-20T04:23:43.755Z,66.13
2023-05-20T04:26:11.003Z,65.97
2023-05-20T04:28:39.690Z,65.51
2023-05-20T04:31:07.152Z,65.51
2023-05-20T04:33:39.802Z,65.54
2023-05-20T04:36:08.854Z,65.53
2023-05-20T04:38:36.489Z,65.71
2023-05-20T04:41:04.469Z,65.45
2023-05-20T04:43:32.126Z,65.14
2023-05-20T04:46:06.474Z,65.02
2023-05-20T04:48:34.207Z,64.90
2023-05-20T04:51:01.773Z,64.81
2023-05-20T04:53:30.969Z,64.40
2023-05-20T04:55:58.236Z,64.63
2023-05-20T04:58:25.501Z,64.47
2023-05-20T05:00:53.342Z,64.88
2023-05-20T05:03:20.599Z,64.31
2023-05-20T05:05:48.587Z,64.50
2023-05-20T05:08:17.061Z,64.47
2023-05-20T05:10:48.921Z,64.59
2023-05-20T05:13:16.477Z,64.51
2023-05-20T05:15:43.784Z,64.11
2023-05-20T05:18:12.302Z,63.73
2023-05-20T05:20:39.979Z,63.61
2023-05-20T05:23:07.442Z,63.94
2023-05-20T05:25:35.030Z,64.23
2023-05-20T05:28:02.562Z,63.89
2023-05-20T05:30:30.740Z,63.67
2023-05-20T05:32:58.209Z,63.34
2023-05-20T05:35:26.827Z,63.11
2023-05-20T05:37:54.570Z,63.34
2023-05-20T05:40:21.901Z,63.34
2023-05-20T05:42:49.152Z,62.57
2023-05-20T05:45:16.441Z,62.40
2023-05-20T05:47:43.779Z,62.85
2023-05-20T05:50:11.743Z,62.78
2023-05-20T05:52:39.090Z,62.65
2023-05-20T05:55:09.565Z,62.05
2023-05-20T05:57:36.990Z,62.26
2023-05-20T06:00:05.278Z,62.27
2023-05-20T06:02:45.700Z,62.28
2023-05-20T06:05:13.805Z,62.04
2023-05-20T06:07:41.352Z,61.98
2023-05-20T06:10:09.158Z,61.61
2023-05-20T06:12:36.780Z,61.22
2023-05-20T06:15:04.644Z,61.51
2023-05-20T06:17:31.843Z,61.20
2023-05-20T06:20:00.201Z,60.94
2023-05-20T06:22:27.543Z,60.10
2023-05-20T06:24:56.877Z,59.91
2023-05-20T06:27:25.317Z,59.14
2023-05-20T06:29:52.574Z,58.40
2023-05-20T06:32:19.833Z,58.47
2023-05-20T06:34:47.180Z,58.37
2023-05-20T06:37:14.849Z,58.57
2023-05-20T06:39:42.105Z,59.16
2023-05-20T06:42:09.465Z,58.93
2023-05-20T06:44:37.326Z,58.27
2023-05-20T06:47:33.579Z,58.09
2023-05-20T06:50:02.141Z,58.07
2023-05-20T06:52:30.422Z,58.10
2023-05-20T06:54:57.652Z,57.38
2023-05-20T06:57:25.139Z,56.93
2023-05-20T06:59:52.386Z,55.92
2023-05-20T07:02:22.152Z,54.85
2023-05-20T07:04:49.706Z,54.96
2023-05-20T07:07:17.679Z,53.84
2023-05-20T07:09:45.805Z,53.66
2023-05-20T07:12:13.098Z,53.88
2023-05-20T07:14:40.309Z,54.04
2023-05-20T07:17:07.566Z,53.92
2023-05-20T07:19:35.018Z,51.80
2023-05-20T07:22:02.683Z,51.23
2023-05-20T07:24:47.859Z,52.03
2023-05-20T07:27:15.108Z,51.02
2023-05-20T07:29:42.972Z,50.74
2023-05-20T07:32:11.082Z,51.16
2023-05-20T07:34:38.919Z,50.85
2023-05-20T07:37:06.685Z,50.42
2023-05-20T07:39:33.942Z,50.78
2023-05-20T07:42:01.213Z,50.51
2023-05-20T07:44:28.754Z,50.02
2023-05-20T07:46:56.422Z,49.41
2023-05-20T07:49:23.664Z,49.25
2023-05-20T07:51:51.126Z,48.98
2023-05-20T07:54:18.394Z,48.36
2023-05-20T07:56:48.089Z,48.29
2023-05-20T07:59:17.915Z,47.99
2023-05-20T08:01:47.960Z,47.68
2023-05-20T08:04:16.558Z,47.27
2023-05-20T08:06:44.892Z,46.95
2023-05-20T08:09:16.233Z,46.87
2023-05-20T08:11:47.681Z,47.33
2023-05-20T08:14:15.448Z,46.50
2023-05-20T08:16:43.954Z,45.71
2023-05-20T08:19:11.511Z,44.95
2023-05-20T08:21:39.564Z,45.35
2023-05-20T08:24:07.543Z,44.73
2023-05-20T08:26:35.511Z,43.44
2023-05-20T08:29:02.860Z,44.28
2023-05-20T08:31:30.182Z,43.31
2023-05-20T08:33:58.186Z,43.28
2023-05-20T08:36:25.697Z,43.24
2023-05-20T08:38:53.111Z,42.54
2023-05-20T08:41:22.834Z,42.49
2023-05-20T08:43:50.890Z,42.54
2023-05-20T08:46:19.593Z,42.58
2023-05-20T08:48:47.139Z,42.85
2023-05-20T08:51:14.388Z,42.02
2023-05-20T08:53:41.642Z,41.23
2023-05-20T08:56:08.793Z,40.67
2023-05-20T08:58:36.352Z,40.80
2023-05-20T09:01:03.564Z,39.82
2023-05-20T09:03:30.890Z,40.51
2023-05-20T09:06:09.365Z,40.09
2023-05-20T09:08:36.836Z,40.71
2023-05-20T09:11:04.305Z,39.13
2023-05-20T09:13:32.978Z,38.30
2023-05-20T09:16:01.757Z,38.93
2023-05-20T09:18:29.744Z,38.71
2023-05-20T09:20:57.480Z,38.66
2023-05-20T09:23:28.244Z,38.45
2023-05-20T09:25:55.402Z,37.36
2023-05-20T09:28:25.436Z,37.90
2023-05-20T09:30:58.475Z,38.48
2023-05-20T09:33:30.876Z,38.14
2023-05-20T09:36:06.210Z,35.59
2023-05-20T09:38:38.320Z,35.62
2023-05-20T09:41:13.418Z,36.09
2023-05-20T09:43:40.780Z,36.56
2023-05-20T09:46:08.776Z,36.93
2023-05-20T09:48:37.695Z,36.38
2023-05-20T09:51:06.477Z,36.33
2023-05-20T09:53:33.720Z,35.84
2023-05-20T09:56:01.453Z,35.92
2023-05-20T09:58:29.559Z,35.75
2023-05-20T10:00:56.901Z,36.67
2023-05-20T10:03:25.294Z,37.54
2023-05-20T10:06:02.135Z,37.57
2023-05-20T10:08:47.719Z,36.26
2023-05-20T10:11:15.178Z,34.71
2023-05-20T10:14:10.080Z,34.58
2023-05-20T10:17:20.765Z,34.44
2023-05-20T10:19:48.011Z,34.87
2023-05-20T10:22:15.362Z,35.49
2023-05-20T10:24:44.267Z,34.72
2023-05-20T10:27:15.210Z,34.08
2023-05-20T10:32:26.774Z,34.30
2023-05-20T10:34:55.901Z,33.95
2023-05-20T10:37:31.409Z,35.00
2023-05-20T10:40:09.575Z,34.87
2023-05-20T10:42:38.143Z,33.16
2023-05-20T10:45:06.312Z,32.92
2023-05-20T10:47:33.589Z,32.84
2023-05-20T10:50:02.459Z,31.35
2023-05-20T10:52:33.624Z,31.36
2023-05-20T10:55:01.372Z,31.81
2023-05-20T10:57:29.288Z,32.22
2023-05-20T10:59:56.695Z,31.89
2023-05-20T11:02:32.805Z,33.10
2023-05-20T11:05:00.131Z,33.19
2023-05-20T11:07:29.059Z,32.36
2023-05-20T11:09:57.058Z,32.87
2023-05-20T11:12:24.814Z,31.69
2023-05-20T11:14:52.209Z,30.38
2023-05-20T11:17:19.953Z,30.39
2023-05-20T11:19:51.215Z,30.90
2023-05-20T11:22:18.581Z,31.55
2023-05-20T11:24:46.848Z,31.10
2023-05-20T11:27:14.217Z,31.66
2023-05-20T11:29:41.770Z,30.72
2023-05-20T11:32:09.297Z,30.17
2023-05-20T11:34:37.617Z,29.91
2023-05-20T11:37:09.629Z,30.12
2023-05-20T11:39:37.788Z,30.11
2023-05-20T11:42:06.539Z,30.72
2023-05-20T11:44:34.400Z,30.29
2023-05-20T11:47:02.318Z,30.02
2023-05-20T11:49:31.072Z,29.26
2023-05-20T11:51:58.926Z,29.29
2023-05-20T11:54:26.588Z,28.79
2023-05-20T11:56:54.910Z,28.71
2023-05-20T11:59:22.332Z,28.21
2023-05-20T12:01:49.604Z,28.18
2023-05-20T12:04:18.244Z,29.34
2023-05-20T12:06:46.142Z,28.90
2023-05-20T12:09:14.504Z,28.96
2023-05-20T12:11:42.287Z,29.34
2023-05-20T12:14:09.939Z,29.72
2023-05-20T12:16:37.944Z,30.22
2023-05-20T12:19:05.529Z,29.56
2023-05-20T12:21:32.824Z,28.74
2023-05-20T12:24:00.286Z,28.54
2023-05-20T12:26:28.476Z,28.33
2023-05-20T12:28:56.546Z,29.32
2023-05-20T12:31:23.929Z,27.28
2023-05-20T12:33:51.242Z,27.87
2023-05-20T12:36:20.025Z,27.88
2023-05-20T12:38:47.600Z,27.86
2023-05-20T12:41:14.945Z,27.70
2023-05-20T12:43:42.209Z,27.79
2023-05-20T12:46:09.552Z,28.03
2023-05-20T12:48:37.481Z,28.39
2023-05-20T12:51:05.543Z,28.30
2023-05-20T12:53:32.851Z,28.28
2023-05-20T12:56:00.180Z,28.18
2023-05-20T12:58:27.450Z,28.63
2023-05-20T13:00:54.737Z,29.06
2023-05-20T13:03:22.062Z,28.79
2023-05-20T13:05:49.423Z,28.95
2023-05-20T13:08:16.902Z,27.75
2023-05-20T13:10:44.030Z,27.64
2023-05-20T13:13:11.590Z,28.10
2023-05-20T13:15:39.253Z,28.58
2023-05-20T13:18:07.404Z,28.76
2023-05-20T13:20:35.054Z,28.05
2023-05-20T13:23:02.651Z,28.13
2023-05-20T13:25:32.057Z,28.24
2023-05-20T13:27:59.307Z,28.52
2023-05-20T13:30:26.769Z,29.08
2023-05-20T13:32:54.105Z,29.14
2023-05-20T13:35:21.690Z,28.62
2023-05-20T13:37:49.044Z,29.16
2023-05-20T13:40:16.288Z,28.76
2023-05-20T13:42:44.574Z,28.87
2023-05-20T13:45:12.343Z,29.13
2023-05-20T13:47:39.591Z,28.88
2023-05-20T13:50:07.879Z,29.27
2023-05-20T13:52:35.221Z,29.60
2023-05-20T13:55:02.578Z,30.57
2023-05-20T13:57:29.822Z,30.65
2023-05-20T13:59:57.080Z,30.78
2023-05-20T14:02:24.391Z,30.18
2023-05-20T14:04:51.792Z,30.37
2023-05-20T14:07:19.054Z,30.40
2023-05-20T14:09:46.302Z,30.46
2023-05-20T14:12:13.553Z,30.72
2023-05-20T14:14:40.957Z,31.47
2023-05-20T14:17:08.205Z,31.42
2023-05-20T14:19:35.560Z,31.93
2023-05-20T14:22:03.692Z,31.99
2023-05-20T14:24:30.893Z,31.71
2023-05-20T14:26:58.239Z,31.28
2023-05-20T14:29:25.659Z,30.62
2023-05-20T14:31:52.906Z,30.78
2023-05-20T14:34:20.261Z,30.99
2023-05-20T14:36:47.946Z,30.84
2023-05-20T14:39:15.437Z,30.51
2023-05-20T14:41:42.642Z,30.52
2023-05-20T14:44:09.892Z,30.42
2023-05-20T14:46:37.371Z,31.26
2023-05-20T14:49:04.806Z,30.70
2023-05-20T14:51:32.264Z,30.62
2023-05-20T14:53:59.827Z,30.99
2023-05-20T14:56:27.086Z,30.65
2023-05-20T14:58:54.331Z,29.81
2023-05-20T15:01:21.659Z,29.90
2023-05-20T15:03:48.954Z,29.61
2023-05-20T15:06:16.505Z,30.55
2023-05-20T15:08:43.778Z,30.77
2023-05-20T15:11:11.466Z,30.37
2023-05-20T15:13:40.378Z,31.35
2023-05-20T15:16:08.133Z,31.46
2023-05-20T15:18:35.329Z,32.16
2023-05-20T15:21:02.692Z,31.05
2023-05-20T15:23:30.042Z,31.55
2023-05-20T15:25:58.839Z,31.62
2023-05-20T15:28:26.040Z,31.02
2023-05-20T15:30:55.263Z,30.87
2023-05-20T15:33:22.932Z,31.16
2023-05-20T15:35:50.302Z,31.49
2023-05-20T15:38:17.972Z,31.41
2023-05-20T15:40:45.117Z,30.95
2023-05-20T15:43:12.367Z,31.34
2023-05-20T15:45:39.779Z,31.21
2023-05-20T15:48:07.429Z,31.72
2023-05-20T15:50:37.985Z,31.84
2023-05-20T15:53:06.624Z,31.75
2023-05-20T15:55:34.169Z,31.69
2023-05-20T15:58:01.733Z,31.73
2023-05-20T16:00:29.089Z,31.37
2023-05-20T16:04:15.171Z,32.08
2023-05-20T16:06:42.955Z,31.54
2023-05-20T16:09:10.218Z,31.39
2023-05-20T16:11:37.463Z,32.23
2023-05-20T16:14:04.715Z,32.36
2023-05-20T16:16:33.245Z,32.87
2023-05-20T16:19:02.465Z,32.62
2023-05-20T16:21:29.767Z,32.56
2023-05-20T16:23:57.033Z,32.93
2023-05-20T16:26:24.975Z,33.10
2023-05-20T16:28:52.229Z,33.02
2023-05-20T16:31:20.064Z,32.69
2023-05-20T16:33:47.451Z,32.91
2023-05-20T16:36:14.713Z,33.05
2023-05-20T16:38:42.167Z,33.58
2023-05-20T16:41:09.531Z,33.54
2023-05-20T16:43:36.792Z,33.48
2023-05-20T16:46:04.157Z,33.74
2023-05-20T16:48:31.789Z,34.00
2023-05-20T16:50:58.947Z,33.76
2023-05-20T16:53:26.089Z,34.39
2023-05-20T16:55:54.848Z,34.45
2023-05-20T16:58:22.141Z,34.57
2023-05-20T17:00:49.446Z,34.77
2023-05-20T17:03:18.383Z,34.37
2023-05-20T17:05:45.745Z,35.25
2023-05-20T17:08:12.902Z,34.64
2023-05-20T17:10:40.353Z,34.39
2023-05-20T17:13:07.606Z,34.49
2023-05-20T17:15:37.413Z,34.75
2023-05-20T17:18:04.786Z,35.26
2023-05-20T17:20:32.654Z,35.04
2023-05-20T17:23:00.139Z,35.38
2023-05-20T17:25:27.355Z,35.86
2023-05-20T17:27:54.722Z,35.69
2023-05-20T17:30:22.167Z,36.11
2023-05-20T17:32:51.121Z,35.97
2023-05-20T17:35:20.916Z,36.64
2023-05-20T17:37:48.129Z,36.71
2023-05-20T17:40:15.688Z,36.99
2023-05-20T17:42:43.043Z,37.61
2023-05-20T17:45:11.026Z,37.50
2023-05-20T17:47:38.290Z,37.76
2023-05-20T17:50:06.620Z,37.78
2023-05-20T17:52:33.903Z,38.42
2023-05-20T17:55:01.267Z,38.63
2023-05-20T17:57:28.821Z,38.59
2023-05-20T17:59:56.072Z,38.72
2023-05-20T18:02:24.015Z,38.96
2023-05-20T18:04:51.504Z,39.50
2023-05-20T18:07:18.763Z,39.59
2023-05-20T18:09:46.219Z,39.68
2023-05-20T18:12:13.471Z,39.43
2023-05-20T18:14:40.937Z,39.62
2023-05-20T18:17:08.184Z,40.00
2023-05-20T18:19:35.446Z,40.04
2023-05-20T18:22:02.953Z,40.38
2023-05-20T18:24:30.359Z,40.42
2023-05-20T18:26:57.628Z,40.94
2023-05-20T18:29:27.136Z,41.23
2023-05-20T18:31:54.429Z,41.64
2023-05-20T18:34:21.738Z,41.80
2023-05-20T18:36:49.081Z,42.13
2023-05-20T18:39:20.854Z,42.41
2023-05-20T18:41:48.563Z,42.50
2023-05-20T18:44:16.400Z,43.07
2023-05-20T18:46:43.639Z,43.30
2023-05-20T18:49:11.498Z,43.45
2023-05-20T18:51:39.713Z,43.39
2023-05-20T18:54:06.990Z,43.64
2023-05-20T18:56:34.488Z,43.64
2023-05-20T18:59:02.060Z,43.64
2023-05-20T19:01:29.580Z,43.70
2023-05-20T19:03:56.973Z,43.67
2023-05-20T19:06:24.224Z,43.54
2023-05-20T19:08:51.587Z,43.89
2023-05-20T19:11:18.943Z,44.26
2023-05-20T19:13:46.291Z,44.37
2023-05-20T19:16:13.616Z,44.60
2023-05-20T19:18:41.246Z,44.33
2023-05-20T19:21:08.566Z,44.13
2023-05-20T19:23:35.834Z,44.21
2023-05-20T19:26:03.178Z,44.52
2023-05-20T19:28:30.431Z,44.82
2023-05-20T19:30:57.713Z,44.75
2023-05-20T19:33:24.941Z,44.42
2023-05-20T19:35:52.195Z,44.49
2023-05-20T19:38:19.557Z,44.55
2023-05-20T19:40:48.148Z,44.71
2023-05-20T19:43:15.702Z,44.78
2023-05-20T19:45:43.026Z,45.05
2023-05-20T19:48:10.353Z,45.49
2023-05-20T19:50:38.200Z,45.58
2023-05-20T19:53:07.856Z,45.99
2023-05-20T19:55:36.300Z,46.22
2023-05-20T19:58:03.943Z,46.37
2023-05-20T20:00:31.408Z,46.47
2023-05-20T20:02:59.531Z,46.69
2023-05-20T20:05:27.452Z,46.72
2023-05-20T20:07:54.804Z,46.73
2023-05-20T20:10:22.162Z,46.54
2023-05-20T20:12:50.140Z,46.84
2023-05-20T20:15:17.798Z,46.93
2023-05-20T20:17:45.910Z,46.90
2023-05-20T20:20:14.451Z,47.17
2023-05-20T20:22:42.264Z,47.24
2023-05-20T20:25:09.786Z,47.38
2023-05-20T20:27:37.001Z,47.46
2023-05-20T20:30:04.784Z,47.73
2023-05-20T20:32:32.188Z,47.62
2023-05-20T20:34:59.881Z,47.90
2023-05-20T20:37:29.957Z,47.90
2023-05-20T20:39:57.526Z,47.85
2023-05-20T20:42:24.899Z,47.67
2023-05-20T20:44:52.967Z,47.56
2023-05-20T20:47:20.256Z,47.41
2023-05-20T20:49:47.667Z,47.25
2023-05-20T20:52:14.926Z,47.21
2023-05-20T20:54:43.289Z,47.60
2023-05-20T20:57:11.802Z,47.17
2023-05-20T20:59:40.171Z,47.48
2023-05-20T21:02:07.437Z,47.60
2023-05-20T21:04:34.806Z,47.63
2023-05-20T21:07:02.327Z,47.52
2023-05-20T21:09:29.703Z,47.86
2023-05-20T21:11:57.511Z,47.83
2023-05-20T21:14:25.596Z,47.98
2023-05-20T21:16:52.829Z,47.84
2023-05-20T21:19:20.206Z,48.05
2023-05-20T21:21:47.545Z,48.32
2023-05-20T21:24:14.889Z,48.41
2023-05-20T21:26:42.148Z,48.57
2023-05-20T21:29:12.199Z,48.53
2023-05-20T21:31:39.355Z,48.80
2023-05-20T21:34:06.663Z,49.11
2023-05-20T21:36:33.944Z,49.19
2023-05-20T21:39:01.173Z,49.29
2023-05-20T21:41:28.424Z,49.66
2023-05-20T21:43:55.888Z,49.98
2023-05-20T21:46:23.164Z,49.86
2023-05-20T21:48:50.396Z,49.81
2023-05-20T21:51:17.656Z,49.90
2023-05-20T21:53:44.912Z,49.83
2023-05-20T21:56:12.219Z,50.44
2023-05-20T21:58:41.474Z,50.44
2023-05-20T22:01:10.377Z,50.25
2023-05-20T22:03:38.573Z,50.29
2023-05-20T22:06:06.416Z,50.43
2023-05-20T22:08:34.185Z,50.14
2023-05-20T22:11:05.745Z,50.23
2023-05-20T22:13:33.959Z,51.17
2023-05-20T22:16:02.183Z,51.01
2023-05-20T22:18:29.753Z,51.71
2023-05-20T22:21:00.592Z,51.32
2023-05-20T22:23:28.363Z,51.35
2023-05-20T22:25:55.617Z,51.27
2023-05-20T22:28:23.968Z,51.47
2023-05-20T22:30:51.867Z,51.54
2023-05-20T22:33:19.229Z,51.65
2023-05-20T22:35:46.476Z,51.62
2023-05-20T22:38:13.734Z,51.80
2023-05-20T22:40:40.998Z,51.96
2023-05-20T22:43:08.354Z,52.19
2023-05-20T22:45:36.121Z,52.41
2023-05-20T22:48:04.832Z,52.25
2023-05-20T22:50:35.730Z,52.22
2023-05-20T22:53:03.508Z,52.30
2023-05-20T22:55:30.771Z,52.13
2023-05-20T22:57:58.224Z,51.98
2023-05-20T23:00:25.484Z,52.33
2023-05-20T23:02:52.828Z,52.31
2023-05-20T23:05:20.306Z,52.62
2023-05-20T23:07:47.760Z,52.91
2023-05-20T23:10:15.041Z,53.07
2023-05-20T23:12:42.270Z,53.84
2023-05-20T23:15:10.683Z,53.67
2023-05-20T23:17:39.803Z,53.90
2023-05-20T23:20:11.317Z,53.51
2023-05-20T23:22:38.867Z,54.20
2023-05-20T23:25:06.675Z,54.69
2023-05-20T23:27:34.197Z,54.43
2023-05-20T23:30:01.458Z,53.90
2023-05-20T23:32:28.788Z,54.28
2023-05-20T23:34:56.184Z,54.19
2023-05-20T23:37:23.524Z,54.30
2023-05-20T23:39:51.229Z,54.63
2023-05-20T23:42:18.440Z,54.41
2023-05-20T23:44:45.695Z,54.59
2023-05-20T23:47:13.971Z,54.52
2023-05-20T23:49:41.816Z,54.32
2023-05-20T23:52:09.042Z,54.26
2023-05-20T23:54:36.764Z,54.39
2023-05-20T23:57:04.484Z,54.77
2023-05-20T23:59:31.991Z,54.64
